createdAt,value
2022-08-30T00:00:21.031Z,75574.16
2022-08-30T00:01:54.514Z,75582.06
2022-08-30T00:03:28.643Z,75584.06
2022-08-30T00:05:03.001Z,75588.00
2022-08-30T00:06:36.335Z,75595.91
2022-08-30T00:08:10.423Z,75599.88
2022-08-30T00:09:44.284Z,75623.59
2022-08-30T00:11:19.791Z,75639.41
2022-08-30T00:12:53.498Z,75639.41
2022-08-30T00:14:32.518Z,75635.44
2022-08-30T00:16:07.354Z,75631.50
2022-08-30T00:17:41.467Z,75643.34
2022-08-30T00:19:15.252Z,75645.34
2022-08-30T00:20:50.280Z,75649.28
2022-08-30T00:22:25.141Z,75667.06
2022-08-30T00:23:58.675Z,75674.97
2022-08-30T00:25:31.883Z,75682.91
2022-08-30T00:27:05.824Z,75694.75
2022-08-30T00:28:39.378Z,75702.66
2022-08-30T00:30:13.245Z,75700.69
2022-08-30T00:31:46.690Z,75708.59
2022-08-30T00:33:20.233Z,75708.59
2022-08-30T00:34:54.427Z,75714.53
2022-08-30T00:36:28.144Z,75730.34
2022-08-30T00:38:01.526Z,75730.34
2022-08-30T00:39:34.752Z,75734.28
2022-08-30T00:41:08.449Z,75734.28
2022-08-30T00:42:41.609Z,75736.28
2022-08-30T00:44:15.114Z,75744.19
2022-08-30T00:45:48.630Z,75746.16
2022-08-30T00:47:22.433Z,75750.13
2022-08-30T00:48:56.920Z,75752.09
2022-08-30T00:50:33.523Z,75760.00
2022-08-30T00:52:07.892Z,75765.94
2022-08-30T00:53:43.528Z,75761.97
2022-08-30T00:55:17.873Z,75771.84
2022-08-30T00:56:51.084Z,75769.88
2022-08-30T00:58:33.324Z,75773.84
2022-08-30T01:00:10.220Z,75773.84
2022-08-30T01:01:43.514Z,75791.63
2022-08-30T01:03:17.315Z,75791.63
2022-08-30T01:04:51.983Z,75777.78
2022-08-30T01:06:26.702Z,75777.78
2022-08-30T01:08:06.503Z,75779.75
2022-08-30T01:09:39.835Z,75779.75
2022-08-30T01:11:13.979Z,75779.75
2022-08-30T01:12:48.200Z,75775.81
2022-08-30T01:14:25.897Z,75781.75
2022-08-30T01:16:00.648Z,75769.88
2022-08-30T01:17:36.289Z,75754.06
2022-08-30T01:19:18.224Z,75756.03
2022-08-30T01:21:11.365Z,75744.19
2022-08-30T01:22:50.631Z,75746.16
2022-08-30T01:24:24.077Z,75736.28
2022-08-30T01:25:57.788Z,75722.44
2022-08-30T01:27:32.372Z,75716.50
2022-08-30T01:29:08.180Z,75708.59
2022-08-30T01:30:43.789Z,75700.69
2022-08-30T01:32:20.987Z,75702.66
2022-08-30T01:33:54.931Z,75702.66
2022-08-30T01:35:35.535Z,75692.78
2022-08-30T01:37:09.029Z,75682.91
2022-08-30T01:38:44.456Z,75678.94
2022-08-30T01:40:18.136Z,75680.91
2022-08-30T01:41:50.934Z,75690.81
2022-08-30T01:43:23.807Z,75688.81
2022-08-30T01:44:56.501Z,75688.81
2022-08-30T01:46:31.329Z,75665.09
2022-08-30T01:48:06.764Z,75671.03
2022-08-30T01:49:40.025Z,75671.03
2022-08-30T01:51:13.498Z,75663.13
2022-08-30T01:52:46.204Z,75655.22
2022-08-30T01:54:18.945Z,75655.22
2022-08-30T01:55:51.712Z,75643.34
2022-08-30T01:57:27.068Z,75635.44
2022-08-30T01:59:02.868Z,75623.59
2022-08-30T02:00:36.011Z,75619.63
2022-08-30T02:02:09.033Z,75580.09
2022-08-30T02:03:43.195Z,75493.13
2022-08-30T02:05:16.456Z,75382.41
2022-08-30T02:06:49.529Z,75303.34
2022-08-30T02:08:22.385Z,75283.56
2022-08-30T02:09:55.001Z,75228.22
2022-08-30T02:11:27.888Z,75176.81
2022-08-30T02:13:00.770Z,75105.66
2022-08-30T02:14:34.198Z,75056.25
2022-08-30T02:16:09.114Z,74993.00
2022-08-30T02:17:42.664Z,74955.44
2022-08-30T02:19:15.563Z,74908.00
2022-08-30T02:20:48.364Z,74848.72
2022-08-30T02:22:21.254Z,74789.41
2022-08-30T02:23:53.970Z,74757.78
2022-08-30T02:25:26.791Z,74730.13
2022-08-30T02:26:59.514Z,74692.56
2022-08-30T02:28:32.216Z,74684.66
2022-08-30T02:30:06.629Z,74635.25
2022-08-30T02:31:39.470Z,74621.41
2022-08-30T02:33:12.417Z,74599.69
2022-08-30T02:34:45.547Z,74550.25
2022-08-30T02:36:19.150Z,74524.56
2022-08-30T02:37:52.492Z,74485.03
2022-08-30T02:39:25.333Z,74453.41
2022-08-30T02:40:57.934Z,74419.81
2022-08-30T02:42:30.558Z,74366.47
2022-08-30T02:44:03.340Z,74338.78
2022-08-30T02:45:36.145Z,74315.09
2022-08-30T02:47:09.042Z,74273.59
2022-08-30T02:48:41.632Z,74239.97
2022-08-30T02:50:14.361Z,74224.19
2022-08-30T02:51:47.114Z,74194.53
2022-08-30T02:53:21.359Z,74121.41
2022-08-30T02:54:55.330Z,74103.63
2022-08-30T02:56:29.041Z,74058.19
2022-08-30T02:58:01.704Z,74026.56
2022-08-30T02:59:34.496Z,73991.00
2022-08-30T03:01:07.231Z,73955.41
2022-08-30T03:02:40.849Z,73939.59
2022-08-30T03:04:13.786Z,73896.13
2022-08-30T03:05:46.438Z,73900.09
2022-08-30T03:07:19.588Z,73894.16
2022-08-30T03:08:52.393Z,73840.81
2022-08-30T03:10:25.097Z,73801.28
2022-08-30T03:11:57.763Z,73765.72
2022-08-30T03:13:30.717Z,73751.88
2022-08-30T03:15:04.647Z,73749.91
2022-08-30T03:16:37.437Z,73726.19
2022-08-30T03:18:11.238Z,73702.47
2022-08-30T03:19:45.128Z,73631.34
2022-08-30T03:21:18.201Z,73617.53
2022-08-30T03:22:51.296Z,73643.19
2022-08-30T03:24:24.046Z,73603.69
2022-08-30T03:25:57.724Z,73587.88
2022-08-30T03:27:30.731Z,73560.22
2022-08-30T03:29:03.633Z,73546.38
2022-08-30T03:30:36.289Z,73550.34
2022-08-30T03:32:09.075Z,73572.06
2022-08-30T03:33:42.273Z,73591.84
2022-08-30T03:35:15.879Z,73603.69
2022-08-30T03:36:49.722Z,73666.91
2022-08-30T03:38:22.642Z,73625.41
2022-08-30T03:39:55.981Z,73576.03
2022-08-30T03:41:29.663Z,73576.03
2022-08-30T03:43:02.432Z,73564.16
2022-08-30T03:44:35.439Z,73694.59
2022-08-30T03:46:09.149Z,73670.88
2022-08-30T03:47:42.581Z,73639.25
2022-08-30T03:49:15.281Z,73651.09
2022-08-30T03:50:50.360Z,73678.78
2022-08-30T03:52:23.159Z,73749.91
2022-08-30T03:53:56.035Z,73714.34
2022-08-30T03:55:30.203Z,73611.59
2022-08-30T03:57:02.910Z,73599.72
2022-08-30T03:58:35.712Z,73591.84
2022-08-30T04:00:09.154Z,73495.00
2022-08-30T04:01:46.046Z,73512.78
2022-08-30T04:03:18.938Z,73459.44
2022-08-30T04:04:51.894Z,73461.41
2022-08-30T04:06:25.212Z,73429.81
2022-08-30T04:07:58.313Z,73465.38
2022-08-30T04:09:31.657Z,73382.38
2022-08-30T04:11:04.953Z,73378.44
2022-08-30T04:12:38.752Z,73336.94
2022-08-30T04:14:11.459Z,73374.47
2022-08-30T04:15:44.028Z,73291.50
2022-08-30T04:17:16.727Z,73263.84
2022-08-30T04:18:49.698Z,73224.31
2022-08-30T04:20:22.378Z,73200.63
2022-08-30T04:21:57.580Z,73149.25
2022-08-30T04:23:30.301Z,73135.41
2022-08-30T04:25:04.039Z,73230.25
2022-08-30T04:26:37.095Z,73165.06
2022-08-30T04:28:10.584Z,73204.56
2022-08-30T04:29:44.130Z,73323.13
2022-08-30T04:31:17.870Z,73242.09
2022-08-30T04:32:50.622Z,73331.03
2022-08-30T04:34:23.469Z,73198.66
2022-08-30T04:35:56.343Z,73224.31
2022-08-30T04:37:29.198Z,73297.44
2022-08-30T04:39:02.127Z,73311.25
2022-08-30T04:40:35.032Z,73311.25
2022-08-30T04:42:09.817Z,73224.31
2022-08-30T04:43:43.287Z,73196.66
2022-08-30T04:45:16.567Z,73212.47
2022-08-30T04:46:49.289Z,73295.44
2022-08-30T04:48:22.607Z,73283.59
2022-08-30T04:49:55.408Z,73321.13
2022-08-30T04:51:28.221Z,73315.22
2022-08-30T04:53:00.990Z,73414.00
2022-08-30T04:54:33.657Z,73281.63
2022-08-30T04:56:10.543Z,73366.59
2022-08-30T04:57:43.655Z,73248.03
2022-08-30T04:59:17.111Z,73232.22
2022-08-30T05:00:49.917Z,73240.13
2022-08-30T05:02:22.972Z,73153.19
2022-08-30T05:03:56.722Z,73159.13
2022-08-30T05:05:41.963Z,73240.13
2022-08-30T05:07:14.685Z,73216.44
2022-08-30T05:08:47.630Z,73216.44
2022-08-30T05:10:20.301Z,73198.66
2022-08-30T05:11:52.941Z,73093.94
2022-08-30T05:13:35.015Z,73089.97
2022-08-30T05:15:09.017Z,73121.59
2022-08-30T05:16:41.979Z,73066.28
2022-08-30T05:18:16.100Z,73016.88
2022-08-30T05:19:48.860Z,73042.56
2022-08-30T05:21:23.672Z,73008.97
2022-08-30T05:22:56.328Z,73014.91
2022-08-30T05:24:28.991Z,73026.75
2022-08-30T05:26:04.986Z,73034.66
2022-08-30T05:27:37.812Z,73016.88
2022-08-30T05:29:10.566Z,72971.44
2022-08-30T05:30:43.178Z,73052.44
2022-08-30T05:32:15.965Z,73020.84
2022-08-30T05:33:49.682Z,73050.47
2022-08-30T05:35:25.555Z,73117.63
2022-08-30T05:36:59.722Z,73016.88
2022-08-30T05:38:35.032Z,72953.66
2022-08-30T05:40:10.932Z,72927.97
2022-08-30T05:41:44.042Z,72890.44
2022-08-30T05:43:17.278Z,72965.50
2022-08-30T05:44:54.104Z,72995.16
2022-08-30T05:46:29.874Z,73086.03
2022-08-30T05:48:02.929Z,73133.44
2022-08-30T05:49:35.715Z,73172.97
2022-08-30T05:51:09.926Z,73198.66
2022-08-30T05:52:43.923Z,73145.28
2022-08-30T05:54:17.141Z,73161.09
2022-08-30T05:55:49.831Z,73060.34
2022-08-30T05:57:22.731Z,73003.06
2022-08-30T05:58:55.697Z,72937.84
2022-08-30T06:00:30.737Z,72924.03
2022-08-30T06:02:03.656Z,73034.66
2022-08-30T06:03:36.651Z,72918.09
2022-08-30T06:05:10.888Z,72971.44
2022-08-30T06:06:47.014Z,72931.94
2022-08-30T06:08:20.976Z,72880.56
2022-08-30T06:09:54.068Z,72860.81
2022-08-30T06:11:27.229Z,72880.56
2022-08-30T06:12:59.947Z,72833.16
2022-08-30T06:14:32.757Z,72848.97
2022-08-30T06:16:05.571Z,72833.16
2022-08-30T06:17:40.154Z,72815.38
2022-08-30T06:19:14.706Z,72845.00
2022-08-30T06:20:51.545Z,72878.59
2022-08-30T06:22:24.675Z,72935.88
2022-08-30T06:23:57.982Z,72914.16
2022-08-30T06:25:41.302Z,72884.50
2022-08-30T06:27:15.740Z,72989.22
2022-08-30T06:28:49.516Z,73111.72
2022-08-30T06:30:22.406Z,73101.84
2022-08-30T06:31:59.741Z,73163.09
2022-08-30T06:33:32.699Z,73180.84
2022-08-30T06:35:05.898Z,73149.25
2022-08-30T06:36:39.353Z,73198.66
2022-08-30T06:38:12.344Z,73295.44
2022-08-30T06:39:45.051Z,73299.41
2022-08-30T06:41:19.697Z,73307.31
2022-08-30T06:42:52.711Z,73338.91
2022-08-30T06:44:25.458Z,73325.09
2022-08-30T06:46:02.529Z,73396.22
2022-08-30T06:47:35.236Z,73465.38
2022-08-30T06:49:09.188Z,73404.13
2022-08-30T06:50:42.354Z,73457.47
2022-08-30T06:52:15.022Z,73481.19
2022-08-30T06:53:49.155Z,73477.22
2022-08-30T06:55:21.933Z,73548.38
2022-08-30T06:56:58.687Z,73556.25
2022-08-30T06:58:32.085Z,73631.34
2022-08-30T07:00:05.918Z,73641.22
2022-08-30T07:01:38.777Z,73603.69
2022-08-30T07:03:11.673Z,73702.47
2022-08-30T07:04:44.368Z,73605.66
2022-08-30T07:06:17.283Z,73639.25
2022-08-30T07:07:54.687Z,73595.78
2022-08-30T07:09:27.407Z,73607.63
2022-08-30T07:11:00.352Z,73581.94
2022-08-30T07:12:33.448Z,73599.72
2022-08-30T07:14:06.945Z,73526.63
2022-08-30T07:15:41.581Z,73528.59
2022-08-30T07:17:34.868Z,73576.03
2022-08-30T07:19:08.177Z,73548.38
2022-08-30T07:20:52.077Z,73550.34
2022-08-30T07:22:24.741Z,73516.75
2022-08-30T07:23:58.876Z,73498.97
2022-08-30T07:25:32.446Z,73485.13
2022-08-30T07:27:05.191Z,73540.47
2022-08-30T07:28:38.750Z,73524.66
2022-08-30T07:30:11.628Z,73457.47
2022-08-30T07:31:44.763Z,73445.63
2022-08-30T07:33:17.585Z,73449.56
2022-08-30T07:34:51.712Z,73449.56
2022-08-30T07:36:24.919Z,73435.75
2022-08-30T07:37:57.820Z,73447.59
2022-08-30T07:39:31.814Z,73415.97
2022-08-30T07:41:05.315Z,73415.97
2022-08-30T07:42:38.106Z,73461.41
2022-08-30T07:44:11.052Z,73481.19
2022-08-30T07:45:44.074Z,73471.31
2022-08-30T07:47:17.117Z,73497.00
2022-08-30T07:48:50.248Z,73477.22
2022-08-30T07:50:23.207Z,73469.31
2022-08-30T07:51:56.788Z,73524.66
2022-08-30T07:53:29.501Z,73461.41
2022-08-30T07:55:02.231Z,73423.88
2022-08-30T07:56:36.338Z,73461.41
2022-08-30T07:58:09.075Z,73524.66
2022-08-30T07:59:42.009Z,73562.19
2022-08-30T08:01:15.196Z,73619.50
2022-08-30T08:02:48.303Z,73623.44
2022-08-30T08:04:21.260Z,73621.47
2022-08-30T08:05:55.091Z,73578.00
2022-08-30T08:07:27.888Z,73536.50
2022-08-30T08:09:02.741Z,73520.69
2022-08-30T08:10:37.156Z,73536.50
2022-08-30T08:12:09.954Z,73579.97
2022-08-30T08:13:52.782Z,73562.19
2022-08-30T08:15:26.921Z,73609.63
2022-08-30T08:17:00.095Z,73564.16
2022-08-30T08:18:33.638Z,73556.25
2022-08-30T08:20:06.532Z,73607.63
2022-08-30T08:21:39.773Z,73611.59
2022-08-30T08:23:12.512Z,73611.59
2022-08-30T08:24:47.395Z,73621.47
2022-08-30T08:26:20.890Z,73572.06
2022-08-30T08:27:53.883Z,73562.19
2022-08-30T08:29:28.345Z,73548.38
2022-08-30T08:31:01.022Z,73587.88
2022-08-30T08:32:33.694Z,73615.53
2022-08-30T08:34:06.967Z,73609.63
2022-08-30T08:35:39.731Z,73587.88
2022-08-30T08:37:12.499Z,73599.72
2022-08-30T08:38:45.565Z,73603.69
2022-08-30T08:40:20.208Z,73568.13
2022-08-30T08:41:53.060Z,73560.22
2022-08-30T08:43:27.225Z,73589.84
2022-08-30T08:45:20.391Z,73603.69
2022-08-30T08:46:55.239Z,73540.47
2022-08-30T08:48:45.645Z,73564.16
2022-08-30T08:50:24.750Z,73469.31
2022-08-30T08:52:16.182Z,73467.34
2022-08-30T08:53:55.059Z,73437.72
2022-08-30T08:55:30.061Z,73421.91
2022-08-30T08:57:02.906Z,73402.16
2022-08-30T08:58:42.095Z,73421.91
2022-08-30T09:00:15.402Z,73431.78
2022-08-30T09:01:51.072Z,73346.81
2022-08-30T09:03:24.917Z,73311.25
2022-08-30T09:05:00.245Z,73313.25
2022-08-30T09:06:49.269Z,73323.13
2022-08-30T09:08:23.826Z,73287.56
2022-08-30T09:09:57.495Z,73267.78
2022-08-30T09:11:32.814Z,73240.13
2022-08-30T09:13:05.401Z,73279.66
2022-08-30T09:14:46.659Z,73293.47
2022-08-30T09:16:38.126Z,73325.09
2022-08-30T09:18:19.384Z,73305.34
2022-08-30T09:19:52.773Z,73293.47
2022-08-30T09:21:29.114Z,73350.78
2022-08-30T09:23:28.250Z,73297.44
2022-08-30T09:25:02.917Z,73402.16
2022-08-30T09:26:38.586Z,73433.75
2022-08-30T09:28:12.957Z,73421.91
2022-08-30T09:29:56.696Z,73410.06
2022-08-30T09:31:45.602Z,73408.06
2022-08-30T09:33:21.728Z,73443.63
2022-08-30T09:34:54.899Z,73469.31
2022-08-30T09:36:29.424Z,73481.19
2022-08-30T09:38:06.657Z,73471.31
2022-08-30T09:39:44.473Z,73465.38
2022-08-30T09:41:38.917Z,73435.75
2022-08-30T09:43:20.503Z,73412.03
2022-08-30T09:45:10.690Z,73431.78
2022-08-30T09:46:47.526Z,73406.09
2022-08-30T09:48:28.966Z,73370.53
2022-08-30T09:50:06.388Z,73344.84
2022-08-30T09:51:47.438Z,73338.91
2022-08-30T09:53:25.021Z,73346.81
2022-08-30T09:54:57.699Z,73336.94
2022-08-30T09:56:34.134Z,73358.69
2022-08-30T09:58:19.184Z,73354.72
2022-08-30T10:00:05.258Z,73362.63
2022-08-30T10:01:43.379Z,73331.03
2022-08-30T10:05:27.936Z,73311.25
2022-08-30T10:07:16.699Z,73283.59
2022-08-30T10:09:02.214Z,73248.03
2022-08-30T10:10:51.582Z,73297.44
2022-08-30T10:12:31.517Z,73342.88
2022-08-30T10:14:05.453Z,73305.34
2022-08-30T10:15:46.979Z,73291.50
2022-08-30T10:17:28.004Z,73340.91
2022-08-30T10:19:00.720Z,73415.97
2022-08-30T10:20:36.306Z,73453.53
2022-08-30T10:22:14.405Z,73402.16
2022-08-30T10:23:53.391Z,73406.09
2022-08-30T10:25:58.300Z,73435.75
2022-08-30T10:27:35.281Z,73356.69
2022-08-30T10:29:08.091Z,73327.06
2022-08-30T10:30:44.583Z,73309.28
2022-08-30T10:32:20.963Z,73279.66
2022-08-30T10:33:56.336Z,73309.28
2022-08-30T10:35:38.635Z,73331.03
2022-08-30T10:37:17.308Z,73352.75
2022-08-30T10:38:52.740Z,73390.28
2022-08-30T10:40:53.040Z,73402.16
2022-08-30T10:42:27.438Z,73455.50
2022-08-30T10:44:02.864Z,73423.88
2022-08-30T10:45:37.640Z,73410.06
2022-08-30T10:47:30.071Z,73390.28
2022-08-30T10:49:03.977Z,73354.72
2022-08-30T10:50:41.408Z,73390.28
2022-08-30T10:52:31.634Z,73382.38
2022-08-30T10:54:10.816Z,73445.63
2022-08-30T10:55:50.427Z,73429.81
2022-08-30T10:57:23.322Z,73459.44
2022-08-30T10:58:58.722Z,73475.25
2022-08-30T11:00:50.460Z,73508.84
2022-08-30T11:02:36.738Z,73481.19
2022-08-30T11:04:09.874Z,73485.13
2022-08-30T11:05:47.427Z,73473.28
2022-08-30T11:07:22.943Z,73439.69
2022-08-30T11:09:11.894Z,73421.91
2022-08-30T11:10:49.511Z,73398.19
2022-08-30T11:12:33.598Z,73406.09
2022-08-30T11:14:08.265Z,73431.78
2022-08-30T11:16:16.262Z,73417.94
2022-08-30T11:17:59.053Z,73382.38
2022-08-30T11:19:39.780Z,73382.38
2022-08-30T11:21:34.645Z,73368.56
2022-08-30T11:23:07.513Z,73388.31
2022-08-30T11:24:59.473Z,73423.88
2022-08-30T11:26:57.635Z,73376.47
2022-08-30T11:28:48.585Z,73372.50
2022-08-30T11:30:40.230Z,73386.34
2022-08-30T11:32:51.829Z,73439.69
2022-08-30T11:34:46.286Z,73394.25
2022-08-30T11:38:53.588Z,73392.28
2022-08-30T11:40:48.617Z,73394.25
2022-08-30T11:44:33.069Z,73398.19
2022-08-30T11:46:27.432Z,73390.28
2022-08-30T11:48:36.984Z,73415.97
2022-08-30T11:50:31.448Z,73433.75
2022-08-30T11:52:27.742Z,73392.28
2022-08-30T11:54:26.019Z,73376.47
2022-08-30T11:56:23.679Z,73336.94
2022-08-30T11:58:19.984Z,73360.66
2022-08-30T12:00:27.040Z,73400.16
2022-08-30T12:02:46.661Z,73390.28
2022-08-30T12:04:45.147Z,73356.69
2022-08-30T12:06:43.114Z,73412.03
2022-08-30T12:08:37.389Z,73398.19
2022-08-30T12:10:21.448Z,73402.16
2022-08-30T12:12:00.133Z,73398.19
2022-08-30T12:13:38.860Z,73388.31
2022-08-30T12:15:26.659Z,73414.00
2022-08-30T12:17:18.662Z,73429.81
2022-08-30T12:19:00.458Z,73443.63
2022-08-30T12:20:49.210Z,73433.75
2022-08-30T12:22:22.620Z,73453.53
2022-08-30T12:24:05.199Z,73475.25
2022-08-30T12:25:38.059Z,73461.41
2022-08-30T12:27:32.830Z,73465.38
2022-08-30T12:29:26.249Z,73449.56
2022-08-30T12:31:06.869Z,73445.63
2022-08-30T12:32:46.710Z,73451.53
2022-08-30T12:34:25.376Z,73449.56
2022-08-30T12:35:59.932Z,73465.38
2022-08-30T12:37:36.970Z,73489.09
2022-08-30T12:39:32.686Z,73471.31
2022-08-30T12:41:05.953Z,73485.13
2022-08-30T12:42:43.591Z,73469.31
2022-08-30T12:44:19.300Z,73471.31
2022-08-30T12:45:54.659Z,73481.19
2022-08-30T12:47:42.363Z,73473.28
2022-08-30T12:49:18.957Z,73469.31
2022-08-30T12:50:54.133Z,73477.22
2022-08-30T12:52:26.900Z,73473.28
2022-08-30T12:54:09.448Z,73493.03
2022-08-30T12:55:54.084Z,73487.09
2022-08-30T12:57:41.061Z,73508.84
2022-08-30T12:59:33.831Z,73495.00
2022-08-30T13:01:26.894Z,73493.03
2022-08-30T13:03:01.668Z,73489.09
2022-08-30T13:04:35.099Z,73489.09
2022-08-30T13:06:08.493Z,73489.09
2022-08-30T13:07:41.327Z,73489.09
2022-08-30T13:09:33.755Z,73497.00
2022-08-30T13:11:11.164Z,73504.91
2022-08-30T13:12:57.780Z,73506.88
2022-08-30T13:14:33.605Z,73512.78
2022-08-30T13:16:12.528Z,73522.69
2022-08-30T13:17:45.769Z,73538.47
2022-08-30T13:19:37.190Z,73536.50
2022-08-30T13:21:30.552Z,73548.38
2022-08-30T13:23:08.203Z,73552.31
2022-08-30T13:24:41.644Z,73544.41
2022-08-30T13:26:14.501Z,73544.41
2022-08-30T13:27:55.798Z,73540.47
2022-08-30T13:29:29.382Z,73542.44
2022-08-30T13:31:02.045Z,73548.38
2022-08-30T13:32:39.037Z,73550.34
2022-08-30T13:34:11.900Z,73544.41
2022-08-30T13:35:44.737Z,73542.44
2022-08-30T13:39:15.105Z,73542.44
2022-08-30T13:40:48.583Z,73538.47
2022-08-30T13:42:36.526Z,73540.47
2022-08-30T13:44:12.102Z,73550.34
2022-08-30T13:45:45.597Z,73550.34
2022-08-30T13:47:35.328Z,73564.16
2022-08-30T13:51:06.578Z,73574.03
2022-08-30T13:52:39.822Z,73581.94
2022-08-30T13:54:12.507Z,73611.59
2022-08-30T13:55:45.727Z,73613.56
2022-08-30T13:59:14.967Z,73645.19
2022-08-30T14:00:48.451Z,73633.31
2022-08-30T14:02:21.595Z,73635.31
2022-08-30T14:05:49.907Z,73655.06
2022-08-30T14:07:23.193Z,73659.00
2022-08-30T14:09:02.884Z,73666.91
2022-08-30T14:10:46.576Z,73672.84
2022-08-30T14:12:52.575Z,73674.81
2022-08-30T14:14:14.936Z,73686.69
2022-08-30T14:15:49.611Z,73684.69
2022-08-30T14:17:25.881Z,73696.56
2022-08-30T14:18:59.490Z,73692.59
2022-08-30T14:20:33.772Z,73696.56
2022-08-30T14:22:06.919Z,73696.56
2022-08-30T14:23:41.064Z,73690.63
2022-08-30T14:25:14.891Z,73690.63
2022-08-30T14:26:51.760Z,73700.50
2022-08-30T14:28:26.288Z,73700.50
2022-08-30T14:29:59.739Z,73706.44
2022-08-30T14:31:33.511Z,73704.47
2022-08-30T14:33:06.951Z,73704.47
2022-08-30T14:34:41.497Z,73720.25
2022-08-30T14:36:17.968Z,73724.22
2022-08-30T14:37:51.061Z,73734.09
2022-08-30T14:39:24.321Z,73734.09
2022-08-30T14:40:57.473Z,73736.06
2022-08-30T14:42:33.718Z,73734.09
2022-08-30T14:44:06.493Z,73738.06
2022-08-30T14:45:42.592Z,73745.94
2022-08-30T14:47:16.524Z,73757.81
2022-08-30T14:48:50.353Z,73757.81
2022-08-30T14:50:23.368Z,73767.69
2022-08-30T14:51:56.499Z,73773.63
2022-08-30T14:53:29.314Z,73777.56
2022-08-30T14:55:08.647Z,73781.53
2022-08-30T14:56:43.354Z,73785.47
2022-08-30T14:58:18.298Z,73785.47
2022-08-30T14:59:51.456Z,73797.34
2022-08-30T15:01:24.334Z,73793.38
2022-08-30T15:02:57.167Z,73801.28
2022-08-30T15:04:30.635Z,73813.13
2022-08-30T15:06:04.127Z,73813.13
2022-08-30T15:07:37.004Z,73817.09
2022-08-30T15:09:11.144Z,73823.03
2022-08-30T15:10:44.343Z,73834.88
2022-08-30T15:12:17.864Z,73836.84
2022-08-30T15:13:52.874Z,73844.75
2022-08-30T15:15:26.130Z,73856.63
2022-08-30T15:17:00.131Z,73864.50
2022-08-30T15:18:32.802Z,73864.50
2022-08-30T15:20:10.299Z,73876.38
2022-08-30T15:21:44.939Z,73878.34
2022-08-30T15:23:18.832Z,73888.22
2022-08-30T15:24:56.156Z,73890.19
2022-08-30T15:26:29.303Z,73894.16
2022-08-30T15:28:02.251Z,73896.13
2022-08-30T15:29:36.485Z,73909.97
2022-08-30T15:31:09.647Z,73923.78
2022-08-30T15:32:42.674Z,73923.78
2022-08-30T15:34:17.857Z,73931.69
2022-08-30T15:35:52.711Z,73933.69
2022-08-30T15:37:28.724Z,73943.56
2022-08-30T15:39:04.315Z,73955.41
2022-08-30T15:40:39.176Z,73963.31
2022-08-30T15:42:15.257Z,73967.28
2022-08-30T15:43:50.616Z,73975.19
2022-08-30T15:45:23.362Z,73977.16
2022-08-30T15:46:56.113Z,73985.06
2022-08-30T15:48:30.644Z,73983.09
2022-08-30T15:50:04.959Z,73983.09
2022-08-30T15:51:41.879Z,73987.03
2022-08-30T15:53:14.827Z,73994.94
2022-08-30T15:54:48.524Z,74006.78
2022-08-30T15:56:21.393Z,74002.84
2022-08-30T15:57:54.133Z,74008.78
2022-08-30T15:59:28.181Z,74008.78
2022-08-30T16:01:01.470Z,74016.69
2022-08-30T16:02:35.889Z,74028.53
2022-08-30T16:04:08.807Z,74030.50
2022-08-30T16:05:43.834Z,74042.38
2022-08-30T16:07:16.917Z,74052.25
2022-08-30T16:08:51.575Z,74052.25
2022-08-30T16:10:24.339Z,74054.22
2022-08-30T16:11:57.129Z,74064.09
2022-08-30T16:13:30.008Z,74066.06
2022-08-30T16:15:02.699Z,74060.16
2022-08-30T16:16:37.794Z,74058.19
2022-08-30T16:18:13.923Z,74054.22
2022-08-30T16:19:47.671Z,74054.22
2022-08-30T16:21:23.834Z,74062.13
2022-08-30T16:22:56.680Z,74060.16
2022-08-30T16:24:29.577Z,74068.06
2022-08-30T16:26:04.162Z,74064.09
2022-08-30T16:27:42.480Z,74070.03
2022-08-30T16:29:15.255Z,74079.91
2022-08-30T16:30:48.093Z,74081.88
2022-08-30T16:32:23.182Z,74091.78
2022-08-30T16:34:02.558Z,74101.66
2022-08-30T16:35:36.446Z,74105.59
2022-08-30T16:37:09.392Z,74115.47
2022-08-30T16:38:43.398Z,74119.44
2022-08-30T16:40:16.220Z,74119.44
2022-08-30T16:41:49.893Z,74117.47
2022-08-30T16:43:23.934Z,74123.38
2022-08-30T16:44:56.887Z,74121.41
2022-08-30T16:46:29.714Z,74125.38
2022-08-30T16:48:02.426Z,74135.25
2022-08-30T16:49:35.629Z,74143.16
2022-08-30T16:51:10.149Z,74156.97
2022-08-30T16:52:44.301Z,74149.06
2022-08-30T16:54:17.848Z,74153.03
2022-08-30T16:55:50.699Z,74160.94
2022-08-30T16:57:23.894Z,74160.94
2022-08-30T16:59:01.724Z,74170.81
2022-08-30T17:00:36.926Z,74182.69
2022-08-30T17:02:10.152Z,74188.59
2022-08-30T17:03:45.506Z,74192.56
2022-08-30T17:05:19.869Z,74200.47
2022-08-30T17:06:53.159Z,74188.59
2022-08-30T17:08:26.339Z,74196.50
2022-08-30T17:09:59.591Z,74184.66
2022-08-30T17:11:33.000Z,74180.69
2022-08-30T17:13:06.145Z,74174.78
2022-08-30T17:14:38.851Z,74164.88
2022-08-30T17:16:12.168Z,74160.94
2022-08-30T17:17:45.180Z,74164.88
2022-08-30T17:19:26.947Z,74160.94
2022-08-30T17:21:01.794Z,74156.97
2022-08-30T17:22:35.338Z,74160.94
2022-08-30T17:24:08.872Z,74160.94
2022-08-30T17:25:43.549Z,74162.91
2022-08-30T17:27:16.157Z,74166.88
2022-08-30T17:28:50.542Z,74170.81
2022-08-30T17:30:23.705Z,74174.78
2022-08-30T17:31:57.198Z,74180.69
2022-08-30T17:33:29.908Z,74184.66
2022-08-30T17:35:02.962Z,74194.53
2022-08-30T17:36:38.843Z,74196.50
2022-08-30T17:38:11.906Z,74202.44
2022-08-30T17:39:44.531Z,74206.38
2022-08-30T17:41:17.226Z,74208.38
2022-08-30T17:42:50.012Z,74212.31
2022-08-30T17:44:25.810Z,74210.34
2022-08-30T17:46:06.034Z,74218.25
2022-08-30T17:47:39.059Z,74226.16
2022-08-30T17:49:11.761Z,74228.13
2022-08-30T17:50:45.727Z,74232.06
2022-08-30T17:52:18.380Z,74236.03
2022-08-30T17:53:51.196Z,74234.06
2022-08-30T17:55:23.944Z,74228.13
2022-08-30T17:56:58.090Z,74230.09
2022-08-30T17:58:30.855Z,74220.22
2022-08-30T18:00:07.290Z,74226.16
2022-08-30T18:01:41.990Z,74222.19
2022-08-30T18:03:14.876Z,74226.16
2022-08-30T18:04:48.549Z,74224.19
2022-08-30T18:06:21.174Z,74224.19
2022-08-30T18:07:53.886Z,74220.22
2022-08-30T18:09:33.239Z,74220.22
2022-08-30T18:11:07.156Z,74220.22
2022-08-30T18:12:40.259Z,74232.06
2022-08-30T18:14:18.517Z,74232.06
2022-08-30T18:15:51.149Z,74234.06
2022-08-30T18:17:23.876Z,74234.06
2022-08-30T18:18:57.316Z,74238.00
2022-08-30T18:20:31.403Z,74243.94
2022-08-30T18:22:04.270Z,74245.91
2022-08-30T18:23:37.369Z,74247.88
2022-08-30T18:25:11.288Z,74243.94
2022-08-30T18:26:43.976Z,74243.94
2022-08-30T18:28:16.895Z,74245.91
2022-08-30T18:29:49.778Z,74249.88
2022-08-30T18:31:22.642Z,74255.78
2022-08-30T18:33:00.163Z,74251.84
2022-08-30T18:34:43.205Z,74259.75
2022-08-30T18:36:16.248Z,74261.72
2022-08-30T18:37:50.461Z,74271.59
2022-08-30T18:39:25.117Z,74275.56
2022-08-30T18:40:59.755Z,74271.59
2022-08-30T18:42:33.695Z,74273.59
2022-08-30T18:44:26.820Z,74283.47
2022-08-30T18:46:09.441Z,74275.56
2022-08-30T18:47:42.225Z,74273.59
2022-08-30T18:49:16.514Z,74301.25
2022-08-30T18:50:49.679Z,74303.22
2022-08-30T18:52:22.515Z,74313.09
2022-08-30T18:53:56.209Z,74319.03
2022-08-30T18:55:28.907Z,74315.09
2022-08-30T18:57:01.559Z,74328.91
2022-08-30T18:58:35.251Z,74324.97
2022-08-30T19:00:10.308Z,74315.09
2022-08-30T19:01:46.893Z,74305.19
2022-08-30T19:03:21.753Z,74303.22